Time;durP1;ratioP1;P1;durP2;ratioP2;P2;SDS_P1;SDS_P2;PMS_P1;PMS_P2;Temp;Humidity;BMP_temperature;BMP_pressure;BME280_temperature;BME280_humidity;BME280_pressure;Samples;Min_cycle;Max_cycle;Signal;HPM_P1;HPM_P2
2020/12/07 00:00:38;;;;;;;11.30;10.10;;;10.90;99.90;;;;;;5069779;28;20192;-60
2020/12/07 00:03:04;;;;;;;11.00;9.90;;;10.80;99.90;;;;;;5067520;28;20184;-60
2020/12/07 00:05:30;;;;;;;12.00;10.73;;;10.80;1.00;;;;;;5069433;28;20446;-60
2020/12/07 00:07:56;;;;;;;12.10;10.73;;;10.90;1.00;;;;;;5063633;28;20553;-60
2020/12/07 00:10:22;;;;;;;11.97;10.77;;;10.90;1.00;;;;;;5057267;28;20444;-59
2020/12/07 00:12:47;;;;;;;12.60;11.30;;;11.00;1.00;;;;;;5064500;28;20458;-59
2020/12/07 00:15:14;;;;;;;13.50;10.80;;;11.00;1.00;;;;;;5057412;28;20193;-60
2020/12/07 00:17:39;;;;;;;14.00;11.67;;;11.00;1.00;;;;;;5062120;28;21055;-60
2020/12/07 00:20:07;;;;;;;11.90;10.70;;;11.10;99.90;;;;;;5069421;28;20518;-59
2020/12/07 00:22:33;;;;;;;12.30;11.07;;;11.10;99.90;;;;;;5067886;28;20174;-58
2020/12/07 00:25:00;;;;;;;12.50;11.20;;;11.10;99.90;;;;;;5068597;28;21089;-58
2020/12/07 00:27:31;;;;;;;12.47;11.27;;;11.20;99.90;;;;;;5069299;28;20243;-60
2020/12/07 00:29:57;;;;;;;12.47;11.17;;;11.20;99.90;;;;;;5063266;28;20442;-59
2020/12/07 00:32:24;;;;;;;12.73;11.23;;;11.20;91.10;;;;;;5058209;28;20581;-59
2020/12/07 00:34:50;;;;;;;11.77;10.57;;;11.20;99.90;;;;;;5066052;28;20454;-58
2020/12/07 00:37:16;;;;;;;12.17;11.07;;;11.20;33.00;;;;;;5069793;28;20431;-59
2020/12/07 00:39:42;;;;;;;11.77;10.67;;;11.30;1.00;;;;;;5059452;28;20767;-59
2020/12/07 00:42:09;;;;;;;12.60;10.97;;;11.30;1.00;;;;;;5068214;28;20471;-59
2020/12/07 00:44:39;;;;;;;11.80;10.60;;;11.20;1.00;;;;;;5057012;28;20194;-59
2020/12/07 00:47:05;;;;;;;13.03;11.27;;;11.20;1.00;;;;;;5050254;28;20567;-59
2020/12/07 00:49:31;;;;;;;12.40;11.10;;;11.30;1.00;;;;;;5053519;28;20443;-60
2020/12/07 00:51:57;;;;;;;12.50;11.20;;;11.30;1.00;;;;;;5067317;28;20432;-59
2020/12/07 00:54:23;;;;;;;12.43;11.17;;;11.30;1.00;;;;;;5061746;28;20786;-59
2020/12/07 00:56:56;;;;;;;11.57;10.37;;;11.30;1.00;;;;;;5065609;28;20200;-58
2020/12/07 00:59:23;;;;;;;12.10;11.00;;;11.20;4.30;;;;;;5068351;28;20539;-59
2020/12/07 01:01:52;;;;;;;11.93;10.73;;;11.20;1.00;;;;;;5068187;28;20469;-60
2020/12/07 01:04:18;;;;;;;12.20;11.00;;;11.20;2.80;;;;;;5069051;28;20423;-59
2020/12/07 01:06:47;;;;;;;12.63;11.30;;;11.20;1.00;;;;;;5065974;28;20477;-56
2020/12/07 01:09:14;;;;;;;12.40;11.10;;;11.20;1.00;;;;;;5069499;28;20183;-60
2020/12/07 01:11:43;;;;;;;12.83;11.63;;;11.20;1.00;;;;;;5058388;28;20999;-60
2020/12/07 01:14:13;;;;;;;12.70;11.43;;;11.20;1.00;;;;;;5066575;28;20522;-59
2020/12/07 01:16:39;;;;;;;12.27;11.07;;;11.20;1.00;;;;;;5068655;28;20442;-59
2020/12/07 01:19:06;;;;;;;12.43;11.13;;;11.20;1.00;;;;;;5068410;28;20443;-60
2020/12/07 01:21:32;;;;;;;11.77;10.50;;;11.20;99.90;;;;;;5061671;28;20450;-59
2020/12/07 01:23:59;;;;;;;13.30;11.90;;;11.20;12.10;;;;;;5055376;28;20439;-56
2020/12/07 01:26:25;;;;;;;11.23;10.13;;;11.20;48.20;;;;;;5059656;28;20524;-59
2020/12/07 01:28:51;;;;;;;11.70;10.53;;;11.20;15.30;;;;;;5056155;28;20439;-59
2020/12/07 01:31:17;;;;;;;13.13;11.70;;;11.20;99.90;;;;;;5062832;28;20424;-60
2020/12/07 01:33:44;;;;;;;11.00;10.00;;;11.10;99.90;;;;;;5057802;28;20423;-60
2020/12/07 01:36:10;;;;;;;11.63;10.53;;;11.20;40.30;;;;;;5052792;28;20420;-59
2020/12/07 01:38:35;;;;;;;12.23;11.03;;;11.20;1.00;;;;;;5064429;28;20841;-60
2020/12/07 01:41:01;;;;;;;11.53;10.43;;;11.10;1.00;;;;;;5068214;28;20219;-60
2020/12/07 01:43:27;;;;;;;11.80;10.60;;;11.10;14.10;;;;;;5066552;28;20250;-60
2020/12/07 01:45:52;;;;;;;12.50;11.20;;;11.10;1.00;;;;;;5053040;28;20194;-59
2020/12/07 01:48:18;;;;;;;11.27;10.17;;;11.10;1.00;;;;;;5057182;28;20247;-60
2020/12/07 01:50:44;;;;;;;11.17;10.07;;;11.10;1.00;;;;;;5065172;28;20516;-60
2020/12/07 01:53:10;;;;;;;11.50;10.30;;;11.10;84.90;;;;;;5063483;28;20185;-60
2020/12/07 01:55:40;;;;;;;12.03;10.13;;;11.00;53.30;;;;;;5057243;28;20209;-60
2020/12/07 01:58:06;;;;;;;10.40;9.40;;;11.10;1.00;;;;;;5068183;28;20515;-60
2020/12/07 02:00:32;;;;;;;11.43;10.23;;;11.10;99.90;;;;;;5058218;28;20546;-60
2020/12/07 02:02:57;;;;;;;11.43;9.80;;;11.00;99.90;;;;;;5054992;28;20194;-60
2020/12/07 02:05:24;;;;;;;11.57;9.73;;;11.00;81.10;;;;;;5055241;28;20621;-60
2020/12/07 02:08:08;;;;;;;11.80;10.30;;;11.00;99.90;;;;;;5066553;28;20623;-60
2020/12/07 02:10:33;;;;;;;11.70;10.50;;;11.10;1.00;;;;;;5071793;28;20931;-59
2020/12/07 02:12:59;;;;;;;11.00;9.90;;;11.00;1.00;;;;;;5066458;28;20436;-60
2020/12/07 02:15:24;;;;;;;10.90;9.80;;;11.00;99.90;;;;;;5072016;28;20189;-59
2020/12/07 02:17:50;;;;;;;11.73;9.93;;;11.10;57.80;;;;;;5069984;28;20211;-60
2020/12/07 02:20:16;;;;;;;11.40;10.20;;;11.10;20.10;;;;;;5056587;28;20194;-59
2020/12/07 02:22:41;;;;;;;11.30;10.20;;;11.00;99.90;;;;;;5066225;28;20197;-60
2020/12/07 02:25:07;;;;;;;11.40;10.20;;;11.00;99.90;;;;;;5072582;28;20228;-60
2020/12/07 02:27:33;;;;;;;12.90;11.60;;;11.00;99.90;;;;;;5065701;28;20217;-60
2020/12/07 02:29:58;;;;;;;11.13;9.93;;;11.00;99.90;;;;;;5063527;28;20597;-59
2020/12/07 02:32:25;;;;;;;11.50;10.30;;;11.00;99.90;;;;;;5071311;28;20459;-60
2020/12/07 02:34:50;;;;;;;10.80;9.80;;;11.00;99.90;;;;;;5065068;28;20200;-58
2020/12/07 02:37:16;;;;;;;12.03;10.67;;;11.00;99.90;;;;;;5072058;28;20419;-59
2020/12/07 02:39:42;;;;;;;11.07;9.93;;;10.90;99.90;;;;;;5064951;28;20194;-60
2020/12/07 02:42:07;;;;;;;11.87;10.60;;;10.90;1.00;;;;;;5064200;28;20311;-59
2020/12/07 02:44:33;;;;;;;13.20;10.63;;;10.90;1.00;;;;;;5061645;28;20451;-60
2020/12/07 02:46:59;;;;;;;12.70;11.03;;;10.90;99.90;;;;;;5068643;28;20207;-59
2020/12/07 02:49:29;;;;;;;12.70;10.03;;;10.90;99.90;;;;;;5060419;28;20987;-59
2020/12/07 02:51:55;;;;;;;11.53;10.30;;;10.90;99.90;;;;;;5071722;28;20196;-59
2020/12/07 02:54:20;;;;;;;11.17;10.07;;;10.90;99.90;;;;;;5058667;28;20902;-59
2020/12/07 02:56:46;;;;;;;12.77;10.80;;;10.90;99.90;;;;;;5071049;28;20193;-59
2020/12/07 02:59:12;;;;;;;12.77;10.80;;;10.90;1.00;;;;;;5070557;28;20246;-59
2020/12/07 03:01:37;;;;;;;12.03;10.20;;;11.00;99.90;;;;;;5070348;28;20551;-59
2020/12/07 03:04:03;;;;;;;12.70;11.23;;;11.00;99.90;;;;;;5066878;28;20193;-59
2020/12/07 03:06:29;;;;;;;12.20;10.77;;;11.00;99.90;;;;;;5067788;28;20583;-59
2020/12/07 03:08:55;;;;;;;12.23;10.93;;;11.00;99.90;;;;;;5062124;28;21056;-59
2020/12/07 03:11:24;;;;;;;11.70;10.50;;;10.90;99.90;;;;;;5071497;28;20530;-60
2020/12/07 03:13:50;;;;;;;14.73;11.30;;;10.90;99.90;;;;;;5066838;28;20847;-59
2020/12/07 03:16:16;;;;;;;12.60;11.27;;;10.90;99.90;;;;;;5057086;28;20952;-60
2020/12/07 03:18:42;;;;;;;11.23;10.03;;;10.90;99.90;;;;;;5061762;28;20619;-60
2020/12/07 03:21:07;;;;;;;11.77;10.57;;;10.90;99.90;;;;;;5069526;28;20219;-60
2020/12/07 03:23:33;;;;;;;12.00;10.80;;;10.90;99.90;;;;;;5068017;28;20189;-59
2020/12/07 03:25:59;;;;;;;11.87;10.67;;;10.90;99.90;;;;;;5071464;28;20258;-60
2020/12/07 03:28:25;;;;;;;12.07;10.87;;;10.90;99.90;;;;;;5066941;28;20185;-59
2020/12/07 03:30:50;;;;;;;10.50;9.47;;;10.90;99.90;;;;;;5056427;28;20513;-59
2020/12/07 03:33:16;;;;;;;11.97;10.77;;;10.90;99.90;;;;;;5070024;28;20197;-60
2020/12/07 03:35:41;;;;;;;12.20;10.40;;;10.90;99.90;;;;;;5069704;28;20181;-60
2020/12/07 03:38:07;;;;;;;12.67;10.83;;;10.90;99.90;;;;;;5061214;28;20194;-59
2020/12/07 03:40:34;;;;;;;12.40;11.10;;;11.00;99.90;;;;;;5051905;28;20294;-60
2020/12/07 03:43:00;;;;;;;12.07;10.87;;;11.00;99.90;;;;;;5067921;28;20185;-60
2020/12/07 03:45:27;;;;;;;11.90;10.50;;;11.00;99.90;;;;;;5060040;28;21068;-59
2020/12/07 03:47:52;;;;;;;10.67;9.67;;;11.00;99.90;;;;;;5069974;28;20490;-59
2020/12/07 03:50:18;;;;;;;11.50;10.40;;;11.10;99.90;;;;;;5070308;28;20407;-59
2020/12/07 03:52:44;;;;;;;11.40;10.30;;;11.10;79.30;;;;;;5065541;28;20189;-59
2020/12/07 03:55:10;;;;;;;11.80;10.50;;;11.10;1.00;;;;;;5070076;28;20208;-59
2020/12/07 03:57:35;;;;;;;11.80;10.60;;;11.10;99.90;;;;;;5068109;28;20200;-59
2020/12/07 04:00:02;;;;;;;12.23;11.03;;;11.20;99.90;;;;;;5070837;28;20902;-60
2020/12/07 04:02:29;;;;;;;11.50;10.30;;;11.20;1.00;;;;;;5068516;28;20231;-60
2020/12/07 04:05:01;;;;;;;13.43;11.37;;;11.20;1.00;;;;;;5070652;28;20461;-59
2020/12/07 04:07:26;;;;;;;12.47;10.73;;;11.10;1.00;;;;;;5067678;28;20567;-59
2020/12/07 04:09:52;;;;;;;12.00;10.80;;;11.20;1.00;;;;;;5061057;28;20507;-59
2020/12/07 04:12:18;;;;;;;12.17;10.67;;;11.10;1.00;;;;;;5064678;28;20185;-60
2020/12/07 04:14:43;;;;;;;11.80;10.23;;;11.10;1.00;;;;;;5068021;28;21009;-60
2020/12/07 04:17:09;;;;;;;14.30;11.50;;;11.10;1.00;;;;;;5066459;28;20185;-61
2020/12/07 04:19:34;;;;;;;12.50;11.13;;;11.10;99.90;;;;;;5062023;28;20194;-60
2020/12/07 04:22:00;;;;;;;11.90;10.70;;;11.10;99.90;;;;;;5070290;28;20716;-59
2020/12/07 04:24:25;;;;;;;12.77;11.47;;;11.20;99.90;;;;;;5067735;28;20189;-59
2020/12/07 04:26:51;;;;;;;12.10;10.80;;;11.20;99.90;;;;;;5050937;28;20212;-60
2020/12/07 04:29:17;;;;;;;12.50;11.30;;;11.10;99.90;;;;;;5064319;28;20670;-60
2020/12/07 04:31:42;;;;;;;13.67;11.67;;;11.20;99.90;;;;;;5066609;28;20239;-60
2020/12/07 04:34:08;;;;;;;12.80;11.57;;;11.10;99.90;;;;;;5057342;28;20586;-60
2020/12/07 04:36:33;;;;;;;13.43;11.33;;;11.20;99.90;;;;;;5055271;28;20193;-60
2020/12/07 04:38:59;;;;;;;13.20;11.67;;;11.20;99.90;;;;;;5068616;28;20185;-60
2020/12/07 04:41:25;;;;;;;13.73;11.27;;;11.10;1.00;;;;;;5064413;28;20233;-60
2020/12/07 04:43:51;;;;;;;14.10;11.40;;;11.20;1.00;;;;;;5065579;28;20514;-61
2020/12/07 04:46:17;;;;;;;13.67;12.30;;;11.10;1.00;;;;;;5056361;28;20189;-60
2020/12/07 04:48:45;;;;;;;12.57;11.37;;;11.20;99.90;;;;;;5059863;28;20439;-59
2020/12/07 04:51:12;;;;;;;13.50;12.10;;;11.20;1.00;;;;;;5058971;28;20416;-59
2020/12/07 04:53:40;;;;;;;13.97;11.90;;;11.20;1.00;;;;;;5067569;28;20543;-60
2020/12/07 04:56:05;;;;;;;14.43;12.80;;;11.30;88.10;;;;;;5056781;28;21235;-59
2020/12/07 04:58:33;;;;;;;14.00;12.60;;;11.20;99.90;;;;;;5056766;28;20464;-60
2020/12/07 05:00:59;;;;;;;13.90;12.23;;;11.10;1.00;;;;;;5069383;28;20185;-59
2020/12/07 05:03:24;;;;;;;14.93;13.50;;;11.00;1.00;;;;;;5059387;28;21130;-59
2020/12/07 05:05:52;;;;;;;14.53;12.70;;;11.00;99.90;;;;;;5054717;28;20181;-59
2020/12/07 05:08:17;;;;;;;13.90;12.40;;;11.00;99.90;;;;;;5057962;28;20213;-59
2020/12/07 05:10:45;;;;;;;14.87;12.23;;;11.00;99.90;;;;;;5064501;28;21034;-59
2020/12/07 05:15:48;;;;;;;15.80;12.70;;;11.00;99.90;;;;;;5066153;28;21141;-60
2020/12/07 05:18:14;;;;;;;14.53;13.03;;;11.00;1.00;;;;;;5064732;28;20470;-60
2020/12/07 05:20:41;;;;;;;15.97;13.30;;;11.00;1.00;;;;;;5046000;28;20448;-59
2020/12/07 05:23:06;;;;;;;15.07;13.47;;;11.00;1.00;;;;;;5050852;28;20897;-59
2020/12/07 05:25:32;;;;;;;15.30;13.70;;;11.00;1.00;;;;;;5051032;28;20423;-58
2020/12/07 05:27:59;;;;;;;17.33;13.63;;;11.00;1.00;;;;;;5060206;28;21059;-60
2020/12/07 05:30:35;;;;;;;15.27;13.60;;;10.90;1.00;;;;;;5050754;28;20173;-59
2020/12/07 05:33:01;;;;;;;14.77;12.97;;;10.90;1.00;;;;;;5050794;28;20399;-59
2020/12/07 05:35:27;;;;;;;14.53;13.00;;;10.90;1.00;;;;;;5043418;28;20435;-60
2020/12/07 05:37:52;;;;;;;16.53;14.20;;;10.90;1.00;;;;;;5045297;28;20498;-60
2020/12/07 05:40:18;;;;;;;18.73;13.87;;;10.90;1.00;;;;;;5062676;28;20228;-60
2020/12/07 05:42:44;;;;;;;15.73;13.50;;;10.80;1.00;;;;;;5059239;28;20182;-60
2020/12/07 05:45:11;;;;;;;15.13;13.47;;;10.80;1.00;;;;;;5067203;28;20177;-60
2020/12/07 05:47:39;;;;;;;15.03;13.20;;;10.80;1.00;;;;;;5068611;28;20447;-59
2020/12/07 05:50:09;;;;;;;17.60;14.27;;;10.80;1.00;;;;;;5069182;28;20437;-60
2020/12/07 05:52:44;;;;;;;14.90;13.20;;;10.70;1.00;;;;;;5071887;28;20483;-60
2020/12/07 05:55:12;;;;;;;16.63;13.60;;;10.80;1.00;;;;;;5074512;28;20428;-60
2020/12/07 05:58:02;;;;;;;16.57;14.30;;;10.80;1.00;;;;;;5062676;28;20506;-60
2020/12/07 06:00:35;;;;;;;18.93;14.10;;;10.80;1.00;;;;;;5062629;28;20427;-59
2020/12/07 06:03:03;;;;;;;14.77;13.20;;;10.70;27.40;;;;;;5068938;28;20428;-59
2020/12/07 06:05:29;;;;;;;15.90;13.53;;;10.70;1.00;;;;;;5068575;28;20428;-59
2020/12/07 06:08:06;;;;;;;15.20;13.33;;;10.70;21.10;;;;;;5067680;28;20470;-61
2020/12/07 06:10:41;;;;;;;16.20;13.13;;;10.70;18.70;;;;;;5051737;28;20523;-59
2020/12/07 06:13:12;;;;;;;16.97;13.90;;;10.70;22.10;;;;;;5064024;28;20423;-59
2020/12/07 06:15:43;;;;;;;17.13;14.00;;;10.70;19.40;;;;;;5050700;28;20423;-59
2020/12/07 06:18:21;;;;;;;15.63;14.00;;;10.70;1.00;;;;;;5061849;28;20573;-59
2020/12/07 06:20:47;;;;;;;15.80;13.53;;;10.70;21.90;;;;;;5068964;28;20439;-59
2020/12/07 06:23:17;;;;;;;16.57;14.40;;;10.70;1.00;;;;;;5066920;28;20449;-59
2020/12/07 06:25:44;;;;;;;15.37;13.33;;;10.70;1.00;;;;;;5068740;28;20185;-60
2020/12/07 06:28:10;;;;;;;17.40;14.67;;;10.70;54.70;;;;;;5067710;28;20459;-60
2020/12/07 06:30:37;;;;;;;15.73;14.03;;;10.70;3.30;;;;;;5068521;28;20926;-60
2020/12/07 06:33:08;;;;;;;16.63;14.83;;;10.70;64.20;;;;;;5068511;28;20375;-60
2020/12/07 06:35:42;;;;;;;15.53;13.50;;;10.70;1.00;;;;;;5068796;28;20471;-60
2020/12/07 06:38:08;;;;;;;17.57;14.20;;;10.60;94.60;;;;;;5066724;28;20743;-59
2020/12/07 06:40:37;;;;;;;19.97;15.27;;;10.60;99.90;;;;;;5068421;28;20462;-59
2020/12/07 06:43:17;;;;;;;17.70;13.83;;;10.60;99.90;;;;;;5065558;28;20196;-59
2020/12/07 06:45:42;;;;;;;16.43;14.23;;;10.60;99.90;;;;;;5067961;28;20408;-60
2020/12/07 06:48:10;;;;;;;15.70;13.97;;;10.60;99.90;;;;;;5066172;28;20592;-59
2020/12/07 06:50:40;;;;;;;17.10;14.33;;;10.60;99.90;;;;;;5067991;28;20847;-60
2020/12/07 06:53:24;;;;;;;17.27;15.43;;;10.60;99.90;;;;;;5070590;28;20473;-59
2020/12/07 06:55:49;;;;;;;16.83;15.13;;;10.50;99.90;;;;;;5072922;28;20423;-60
2020/12/07 06:58:38;;;;;;;18.57;16.03;;;10.50;99.90;;;;;;5071093;28;20415;-60
2020/12/07 07:01:15;;;;;;;17.03;14.13;;;10.50;99.90;;;;;;5069661;28;20188;-60
2020/12/07 07:03:56;;;;;;;16.87;15.07;;;10.50;99.90;;;;;;5068849;28;21187;-59
2020/12/07 07:06:23;;;;;;;18.00;15.03;;;10.40;99.90;;;;;;5053453;28;20527;-60
2020/12/07 07:08:50;;;;;;;18.83;14.83;;;10.40;99.90;;;;;;5056077;28;20523;-60
2020/12/07 07:11:16;;;;;;;17.63;14.67;;;10.40;99.90;;;;;;5050965;28;20456;-58
2020/12/07 07:13:51;;;;;;;16.57;14.70;;;10.40;99.90;;;;;;5063242;28;20428;-59
2020/12/07 07:16:18;;;;;;;17.53;15.20;;;10.40;99.90;;;;;;5051495;28;20471;-60
2020/12/07 07:18:44;;;;;;;17.00;15.03;;;10.40;99.90;;;;;;5051094;28;20434;-60
2020/12/07 07:21:10;;;;;;;19.30;15.27;;;10.40;99.90;;;;;;5054726;28;20953;-59
2020/12/07 07:23:40;;;;;;;18.87;15.60;;;10.40;99.90;;;;;;5061899;28;20423;-59
2020/12/07 07:26:40;;;;;;;20.00;14.90;;;10.40;99.90;;;;;;5070346;28;20177;-60
2020/12/07 07:29:04;;;;;;;17.73;14.77;;;10.40;99.90;;;;;;5068643;28;20482;-58
2020/12/07 07:31:30;;;;;;;18.47;15.13;;;10.40;99.90;;;;;;5051308;28;20590;-60
2020/12/07 07:33:56;;;;;;;18.10;15.10;;;10.40;99.90;;;;;;5062606;28;20410;-58
2020/12/07 07:36:23;;;;;;;16.63;14.93;;;10.40;99.90;;;;;;5070464;28;20931;-60
2020/12/07 07:38:56;;;;;;;20.30;16.13;;;10.40;99.90;;;;;;5068040;28;20177;-60
2020/12/07 07:41:27;;;;;;;17.60;14.97;;;10.40;99.90;;;;;;5070312;28;21299;-59
2020/12/07 07:43:54;;;;;;;16.53;14.70;;;10.40;99.90;;;;;;5069391;28;21513;-60
2020/12/07 07:46:20;;;;;;;19.83;15.20;;;10.40;99.90;;;;;;5066986;28;20442;-57
2020/12/07 07:48:59;;;;;;;19.27;14.63;;;10.40;99.90;;;;;;5068662;28;20461;-62
2020/12/07 08:18:08;;;;;;;19.00;15.53;;;10.30;1.00;;;;;;5069210;28;20482;-61
2020/12/07 08:20:37;;;;;;;17.37;14.83;;;10.30;1.00;;;;;;5069609;28;20185;-61
2020/12/07 08:23:05;;;;;;;18.43;15.33;;;10.20;1.00;;;;;;5067839;28;20180;-61
2020/12/07 08:25:51;;;;;;;19.90;15.50;;;10.30;1.00;;;;;;5069091;28;20416;-60
2020/12/07 08:28:40;;;;;;;18.57;15.73;;;10.20;1.00;;;;;;5068605;28;20459;-57
2020/12/07 08:31:19;;;;;;;19.33;15.30;;;10.20;1.00;;;;;;5069045;28;20497;-59
2020/12/07 08:34:15;;;;;;;20.60;15.93;;;10.20;1.00;;;;;;5068764;28;20404;-60
2020/12/07 08:36:43;;;;;;;18.07;14.90;;;10.20;1.00;;;;;;5068725;28;20506;-60
2020/12/07 08:39:09;;;;;;;19.90;16.20;;;10.10;1.00;;;;;;5069081;28;20434;-60
2020/12/07 08:41:36;;;;;;;19.00;14.67;;;10.10;1.00;;;;;;5068790;28;20463;-61
2020/12/07 08:44:04;;;;;;;18.00;14.67;;;10.10;1.00;;;;;;5068717;28;21037;-58
2020/12/07 08:46:32;;;;;;;18.00;14.73;;;10.20;1.00;;;;;;5068547;28;20470;-61
2020/12/07 08:49:00;;;;;;;18.63;15.40;;;10.20;1.00;;;;;;5068873;28;20469;-60
2020/12/07 08:51:27;;;;;;;19.50;15.40;;;10.20;1.00;;;;;;5068840;28;20423;-59
2020/12/07 08:53:53;;;;;;;19.80;16.17;;;10.20;1.00;;;;;;5067590;28;20496;-59
2020/12/07 08:56:19;;;;;;;20.20;15.90;;;10.20;1.00;;;;;;5068496;28;20751;-59
2020/12/07 08:58:45;;;;;;;17.63;15.77;;;10.20;1.00;;;;;;5066928;28;20430;-60
2020/12/07 09:01:11;;;;;;;18.27;15.43;;;10.20;1.00;;;;;;5063364;28;20921;-60
2020/12/07 09:03:39;;;;;;;20.57;16.13;;;10.20;1.00;;;;;;5066370;28;20177;-62
2020/12/07 09:06:06;;;;;;;16.87;15.10;;;10.20;1.00;;;;;;5066911;28;20431;-62
2020/12/07 09:08:36;;;;;;;17.23;14.47;;;10.20;1.00;;;;;;5067678;28;20472;-62
2020/12/07 09:11:05;;;;;;;18.73;15.90;;;10.10;1.00;;;;;;5067907;28;20415;-63
2020/12/07 09:13:31;;;;;;;19.67;15.60;;;10.20;1.00;;;;;;5067413;28;20507;-63
2020/12/07 09:15:57;;;;;;;17.10;15.30;;;10.20;1.00;;;;;;5066308;28;20518;-63
2020/12/07 09:18:23;;;;;;;17.10;15.30;;;10.20;1.00;;;;;;5067387;28;20219;-63
2020/12/07 09:20:49;;;;;;;16.73;14.60;;;10.20;1.00;;;;;;5067595;28;20185;-60
2020/12/07 09:23:15;;;;;;;17.33;14.90;;;10.20;1.00;;;;;;5067580;28;20276;-62
2020/12/07 09:25:41;;;;;;;17.47;15.00;;;10.20;1.00;;;;;;5067347;28;20424;-59
2020/12/07 09:28:07;;;;;;;17.83;13.90;;;10.20;1.00;;;;;;5062526;28;20658;-59
2020/12/07 09:30:33;;;;;;;18.03;15.77;;;10.30;1.00;;;;;;5067201;28;20510;-59
2020/12/07 09:32:59;;;;;;;17.30;14.13;;;10.30;1.00;;;;;;5066964;28;20523;-63
2020/12/07 09:35:25;;;;;;;16.50;14.37;;;10.40;1.00;;;;;;5067037;28;20612;-61
2020/12/07 09:37:50;;;;;;;17.60;15.00;;;10.40;1.00;;;;;;5065761;28;20185;-62
2020/12/07 09:40:16;;;;;;;17.30;14.90;;;10.30;1.00;;;;;;5066478;28;20239;-62
2020/12/07 09:42:42;;;;;;;17.67;14.97;;;10.20;1.00;;;;;;5067117;28;20239;-62
2020/12/07 09:45:08;;;;;;;16.37;14.53;;;10.30;1.00;;;;;;5066008;28;20208;-62
2020/12/07 09:47:35;;;;;;;17.63;15.67;;;10.30;1.00;;;;;;5066591;28;20212;-59
2020/12/07 09:50:09;;;;;;;17.50;14.17;;;10.50;1.00;;;;;;5067968;28;20450;-60
2020/12/07 09:52:36;;;;;;;17.00;14.00;;;10.60;1.00;;;;;;5066787;28;20427;-59
2020/12/07 09:55:02;;;;;;;16.53;14.03;;;10.70;1.00;;;;;;5067829;28;20431;-60
2020/12/07 09:57:28;;;;;;;17.20;15.30;;;10.70;1.00;;;;;;5071329;28;20514;-60
2020/12/07 09:59:53;;;;;;;17.13;14.37;;;10.70;1.00;;;;;;5070799;28;20578;-60
2020/12/07 10:02:19;;;;;;;17.20;15.33;;;10.70;1.00;;;;;;5072297;28;20225;-60
2020/12/07 10:04:45;;;;;;;17.43;15.53;;;10.70;1.00;;;;;;5067817;28;20201;-60
2020/12/07 10:07:12;;;;;;;15.90;14.30;;;10.80;1.00;;;;;;5063229;28;20744;-60
2020/12/07 10:09:37;;;;;;;18.00;15.50;;;10.80;99.90;;;;;;5053939;28;20412;-60
2020/12/07 10:12:04;;;;;;;19.00;15.83;;;10.70;99.90;;;;;;5059755;28;20467;-60
2020/12/07 10:14:29;;;;;;;19.37;16.67;;;10.70;1.00;;;;;;5074238;28;20204;-59
2020/12/07 10:17:01;;;;;;;17.20;15.40;;;10.60;1.00;;;;;;5065287;28;20428;-60
2020/12/07 10:19:27;;;;;;;20.23;16.00;;;10.60;1.00;;;;;;5047494;28;20625;-59
2020/12/07 10:21:53;;;;;;;18.40;16.40;;;10.60;1.00;;;;;;5047468;28;20478;-60
2020/12/07 10:24:19;;;;;;;17.03;15.17;;;10.50;1.00;;;;;;5065330;28;20220;-60
2020/12/07 10:26:45;;;;;;;21.43;16.70;;;10.50;1.00;;;;;;5067622;28;20952;-59
2020/12/07 10:29:10;;;;;;;20.57;16.77;;;10.40;1.00;;;;;;5066907;28;20462;-60
2020/12/07 10:31:36;;;;;;;19.07;16.70;;;10.30;1.00;;;;;;5068389;28;20628;-60
2020/12/07 10:34:02;;;;;;;18.40;15.57;;;10.20;1.00;;;;;;5071474;28;20173;-60
2020/12/07 10:36:27;;;;;;;21.77;16.37;;;10.20;1.00;;;;;;5070078;28;20239;-61
2020/12/07 10:38:53;;;;;;;18.70;15.97;;;10.20;1.00;;;;;;5070919;28;20269;-60
2020/12/07 10:41:26;;;;;;;19.90;16.33;;;10.10;1.00;;;;;;5071269;28;20231;-57
2020/12/07 10:43:52;;;;;;;19.07;16.33;;;10.00;1.00;;;;;;5069978;28;20431;-60
2020/12/07 10:46:17;;;;;;;20.00;16.03;;;10.00;1.00;;;;;;5070944;28;20412;-61
2020/12/07 10:48:43;;;;;;;18.80;16.60;;;9.90;1.00;;;;;;5071118;28;20590;-61
2020/12/07 10:51:13;;;;;;;19.70;16.33;;;10.00;1.00;;;;;;5068218;28;20181;-60
2020/12/07 10:53:39;;;;;;;19.97;16.77;;;9.90;1.00;;;;;;5078503;28;20528;-61
2020/12/07 10:56:07;;;;;;;18.70;16.57;;;9.90;1.00;;;;;;5071059;28;20408;-61
2020/12/07 10:58:33;;;;;;;19.87;16.87;;;9.90;1.00;;;;;;5073972;28;20418;-60
2020/12/07 11:00:59;;;;;;;20.53;17.10;;;9.90;1.00;;;;;;5072988;28;20426;-60
2020/12/07 11:03:24;;;;;;;17.80;15.40;;;9.90;1.00;;;;;;5061752;28;20443;-60
2020/12/07 11:05:50;;;;;;;17.67;14.87;;;9.90;1.00;;;;;;5070408;28;20243;-59
2020/12/07 11:08:20;;;;;;;16.80;14.80;;;10.00;1.00;;;;;;5063563;28;20611;-60
2020/12/07 11:10:46;;;;;;;15.00;13.40;;;10.00;1.00;;;;;;5064872;28;20185;-60
2020/12/07 11:13:26;;;;;;;16.67;13.37;;;9.90;1.00;;;;;;5054706;28;20424;-60
2020/12/07 11:15:52;;;;;;;14.30;12.70;;;9.90;1.00;;;;;;5052766;28;20201;-60
2020/12/07 11:18:17;;;;;;;15.10;12.10;;;10.00;1.00;;;;;;5066285;28;20762;-60
2020/12/07 11:20:43;;;;;;;13.67;11.93;;;9.90;1.00;;;;;;5068256;28;20200;-60
2020/12/07 11:23:08;;;;;;;11.77;10.30;;;10.00;1.00;;;;;;5056044;28;20189;-60
2020/12/07 11:25:34;;;;;;;11.53;10.23;;;9.90;1.00;;;;;;5062515;28;20278;-61
2020/12/07 11:28:00;;;;;;;12.40;10.43;;;9.80;1.00;;;;;;5070449;28;20209;-61
2020/12/07 11:30:26;;;;;;;11.33;9.60;;;9.80;1.00;;;;;;5074519;28;20196;-60
2020/12/07 11:32:52;;;;;;;11.30;9.10;;;9.70;1.00;;;;;;5062787;28;20645;-60
2020/12/07 11:35:17;;;;;;;8.30;7.20;;;9.70;99.90;;;;;;5050031;28;20424;-61
2020/12/07 11:37:43;;;;;;;9.57;8.57;;;9.70;99.90;;;;;;5062394;28;20193;-62
2020/12/07 11:40:25;;;;;;;8.07;7.23;;;9.60;99.90;;;;;;5069381;28;20201;-60
2020/12/07 11:43:38;;;;;;;9.20;7.83;;;9.60;99.90;;;;;;5067239;28;20435;-60
2020/12/07 11:45:41;;;;;;;8.00;7.20;;;9.60;99.90;;;;;;5063180;28;20821;-60
2020/12/07 11:48:06;;;;;;;8.03;6.90;;;9.70;99.90;;;;;;5049646;28;20472;-59
2020/12/07 11:50:32;;;;;;;7.80;6.97;;;9.80;1.00;;;;;;5049577;28;20440;-60
2020/12/07 11:52:57;;;;;;;8.70;6.80;;;9.90;1.00;;;;;;5050067;28;20648;-59
2020/12/07 11:55:23;;;;;;;7.90;6.93;;;10.00;1.00;;;;;;5068009;28;20258;-60
2020/12/07 11:57:49;;;;;;;8.23;7.27;;;10.00;99.90;;;;;;5064591;28;20190;-60
2020/12/07 12:00:14;;;;;;;8.30;7.40;;;10.00;99.90;;;;;;5062103;28;20546;-60
2020/12/07 12:02:40;;;;;;;9.20;6.93;;;10.10;99.90;;;;;;5068306;28;20220;-59
2020/12/07 12:05:05;;;;;;;7.90;6.37;;;10.10;99.90;;;;;;5069011;28;20185;-61
2020/12/07 12:07:31;;;;;;;6.53;5.93;;;10.30;1.00;;;;;;5069076;28;20675;-60
2020/12/07 12:09:57;;;;;;;6.90;6.20;;;10.40;1.00;;;;;;5068612;28;20208;-61
2020/12/07 12:12:22;;;;;;;7.97;7.00;;;10.40;16.40;;;;;;5068698;28;20192;-61
2020/12/07 12:14:48;;;;;;;6.67;6.07;;;10.50;99.90;;;;;;5069155;28;20185;-58
2020/12/07 12:17:13;;;;;;;7.40;6.73;;;10.70;1.00;;;;;;5069158;28;20189;-60
2020/12/07 12:19:39;;;;;;;10.03;8.87;;;10.70;99.90;;;;;;5069299;28;20193;-60
2020/12/07 12:22:05;;;;;;;7.53;5.97;;;10.70;99.90;;;;;;5062092;28;20189;-59
2020/12/07 12:24:30;;;;;;;6.30;5.70;;;10.70;99.90;;;;;;5068835;28;20333;-60
2020/12/07 12:26:56;;;;;;;7.20;6.27;;;10.90;1.00;;;;;;5068545;28;20211;-60
2020/12/07 12:29:21;;;;;;;6.33;5.73;;;11.10;99.90;;;;;;5068952;28;20203;-60
2020/12/07 12:31:47;;;;;;;5.90;5.30;;;11.30;99.90;;;;;;5068693;28;20188;-60
2020/12/07 12:34:13;;;;;;;5.57;5.07;;;11.80;99.90;;;;;;5068936;28;20186;-60
2020/12/07 12:36:38;;;;;;;7.03;5.80;;;12.50;1.00;;;;;;5068677;28;20489;-60
2020/12/07 12:39:04;;;;;;;5.23;4.83;;;13.10;92.90;;;;;;5068420;28;20272;-60
2020/12/07 12:41:30;;;;;;;6.03;5.43;;;13.60;1.00;;;;;;5068533;28;20264;-60
2020/12/07 12:43:55;;;;;;;5.77;5.27;;;14.30;1.00;;;;;;5068580;28;20295;-60
2020/12/07 12:46:22;;;;;;;5.23;4.73;;;14.60;1.00;;;;;;5068971;28;20256;-60
2020/12/07 12:48:48;;;;;;;5.53;5.13;;;15.10;99.90;;;;;;5067536;28;20816;-63
2020/12/07 12:51:14;;;;;;;5.77;5.10;;;15.30;99.90;;;;;;5068667;28;20487;-59
2020/12/07 12:53:40;;;;;;;6.30;5.70;;;15.50;99.90;;;;;;5066554;28;20606;-62
2020/12/07 12:56:09;;;;;;;6.13;5.53;;;15.80;99.90;;;;;;5067230;28;20614;-62
2020/12/07 12:58:36;;;;;;;6.00;5.40;;;15.90;99.90;;;;;;5066514;28;20426;-62
2020/12/07 13:01:03;;;;;;;6.10;5.60;;;15.70;99.90;;;;;;5066892;28;20527;-60
2020/12/07 13:03:28;;;;;;;7.43;6.83;;;15.40;99.90;;;;;;5067055;28;20432;-59
2020/12/07 13:05:54;;;;;;;7.10;6.40;;;15.10;99.90;;;;;;5065128;28;20432;-59